Time;durP1;ratioP1;P1;durP2;ratioP2;P2;SDS_P1;SDS_P2;PMS_P1;PMS_P2;Temp;Humidity;BMP_temperature;BMP_pressure;BME280_temperature;BME280_humidity;BME280_pressure;Samples;Min_cycle;Max_cycle;Signal;HPM_P1;HPM_P2
2023/12/02 00:00:04;;;;;;;16.50;7.20;;;;;;;-1.04;100.00;98921.38;107595;1278;73849;-63
2023/12/02 00:03:18;;;;;;;15.60;6.10;;;;;;;-1.01;100.00;98921.23;107472;1278;58142;-62
2023/12/02 00:06:06;;;;;;;15.70;6.60;;;;;;;-1.03;100.00;98912.27;107622;1279;58716;-61
2023/12/02 00:08:54;;;;;;;14.50;5.70;;;;;;;-0.97;100.00;98917.20;107465;1280;72526;-62
2023/12/02 00:11:42;;;;;;;11.30;4.80;;;;;;;-0.96;100.00;98918.40;107592;1280;67675;-61
2023/12/02 00:14:31;;;;;;;16.70;6.00;;;;;;;-0.97;100.00;98915.46;107586;1277;73740;-62
2023/12/02 00:17:18;;;;;;;16.10;6.20;;;;;;;-0.95;100.00;98908.23;107477;1279;58149;-62
2023/12/02 00:20:06;;;;;;;18.20;7.70;;;;;;;-0.94;100.00;98914.11;107605;1280;60179;-71
2023/12/02 00:22:54;;;;;;;16.20;6.60;;;;;;;-0.93;100.00;98911.79;107247;1277;72768;-61
2023/12/02 00:25:42;;;;;;;18.40;7.50;;;;;;;-0.90;100.00;98914.05;107619;1279;69068;-62
2023/12/02 00:28:29;;;;;;;17.60;7.40;;;;;;;-0.86;100.00;98913.55;107559;1279;72545;-63
2023/12/02 00:31:17;;;;;;;16.70;6.60;;;;;;;-0.84;100.00;98906.33;107596;1280;58172;-61
2023/12/02 00:34:04;;;;;;;14.90;6.20;;;;;;;-0.84;100.00;98907.35;106864;1279;1002402;-61
2023/12/02 00:36:52;;;;;;;15.20;6.60;;;;;;;-0.89;100.00;98904.98;107518;1278;74775;-61
2023/12/02 00:39:40;;;;;;;13.20;5.80;;;;;;;-0.95;100.00;98901.95;107372;1278;68870;-65
2023/12/02 00:42:28;;;;;;;10.80;4.60;;;;;;;-1.03;100.00;98903.20;106836;1278;1015098;-60
2023/12/02 00:45:16;;;;;;;17.00;6.00;;;;;;;-1.12;100.00;98903.83;107588;1278;58159;-61
2023/12/02 00:48:04;;;;;;;17.50;6.90;;;;;;;-1.21;100.00;98908.77;107515;1278;60525;-62
2023/12/02 00:50:52;;;;;;;18.80;7.70;;;;;;;-1.31;100.00;98917.09;107594;1278;73656;-62
2023/12/02 00:53:40;;;;;;;20.70;8.30;;;;;;;-1.39;100.00;98922.17;107622;1278;68767;-62
2023/12/02 00:56:27;;;;;;;21.70;8.20;;;;;;;-1.47;100.00;98925.69;107459;1278;72830;-62
2023/12/02 00:59:15;;;;;;;19.40;8.10;;;;;;;-1.56;100.00;98930.77;107560;1280;58184;-62
2023/12/02 01:02:03;;;;;;;18.40;7.20;;;;;;;-1.62;100.00;98930.18;107486;1280;60282;-61
2023/12/02 01:04:51;;;;;;;21.80;8.30;;;;;;;-1.66;100.00;98928.81;106792;1278;1002765;-63
2023/12/02 01:07:39;;;;;;;20.00;7.80;;;;;;;-1.70;100.00;98934.90;107507;1277;66737;-63
2023/12/02 01:10:27;;;;;;;19.20;8.00;;;;;;;-1.74;100.00;98932.08;107634;1278;72750;-61
2023/12/02 01:13:15;;;;;;;15.40;5.70;;;;;;;-1.75;100.00;98934.91;107490;1278;58126;-60
2023/12/02 01:16:03;;;;;;;13.70;4.50;;;;;;;-1.74;100.00;98934.37;107284;1278;61065;-60
2023/12/02 01:18:51;;;;;;;16.70;5.40;;;;;;;-1.73;100.00;98932.61;107647;1278;75046;-68
2023/12/02 01:21:39;;;;;;;13.10;5.10;;;;;;;-1.74;100.00;98928.95;106724;1277;1003004;-62
2023/12/02 01:24:28;;;;;;;16.10;5.40;;;;;;;-1.76;100.00;98927.83;105919;1279;1002758;-60
2023/12/02 01:27:15;;;;;;;16.20;6.50;;;;;;;-1.76;100.00;98932.73;107423;1279;58844;-62
2023/12/02 01:30:04;;;;;;;14.70;5.20;;;;;;;-1.76;100.00;98932.17;107604;1277;60045;-62
2023/12/02 01:32:52;;;;;;;15.10;5.00;;;;;;;-1.76;100.00;98939.16;107456;1280;74900;-60
2023/12/02 01:35:40;;;;;;;16.40;6.10;;;;;;;-1.77;100.00;98937.14;107569;1278;67943;-60
2023/12/02 01:38:27;;;;;;;13.60;5.70;;;;;;;-1.76;100.00;98939.15;107581;1277;72616;-62
2023/12/02 01:41:15;;;;;;;14.70;5.20;;;;;;;-1.73;100.00;98932.42;107587;1278;58802;-62
2023/12/02 01:44:02;;;;;;;14.40;5.80;;;;;;;-1.70;100.00;98932.26;107520;1279;58987;-61
2023/12/02 01:46:50;;;;;;;15.00;5.80;;;;;;;-1.65;100.00;98927.87;107623;1279;74003;-61
2023/12/02 01:49:40;;;;;;;15.00;5.40;;;;;;;-1.59;100.00;98929.70;107619;1278;69212;-62
2023/12/02 01:52:28;;;;;;;13.40;5.00;;;;;;;-1.54;100.00;98929.48;107463;1278;72586;-62
2023/12/02 01:55:16;;;;;;;11.80;4.70;;;;;;;-1.47;100.00;98933.66;107475;1279;58139;-63
2023/12/02 01:58:03;;;;;;;13.50;4.70;;;;;;;-1.41;100.00;98935.12;106895;1278;1002274;-62
2023/12/02 02:00:51;;;;;;;12.70;4.60;;;;;;;-1.33;100.00;98938.09;107556;1279;73631;-61
2023/12/02 02:03:39;;;;;;;11.90;10.70;;;;;;;-1.26;100.00;98934.27;107548;1278;68789;-62
2023/12/02 02:06:27;;;;;;;11.70;4.00;;;;;;;-1.21;100.00;98934.20;107623;1278;74029;-63
2023/12/02 02:09:16;;;;;;;9.70;3.60;;;;;;;-1.18;100.00;98935.11;107458;1277;58703;-61
2023/12/02 02:12:04;;;;;;;10.00;3.80;;;;;;;-1.17;100.00;98931.74;107530;1278;60333;-61
2023/12/02 02:14:52;;;;;;;10.10;3.80;;;;;;;-1.18;100.00;98923.23;107489;1278;73973;-61
2023/12/02 02:17:40;;;;;;;10.10;3.90;;;;;;;-1.09;100.00;98928.23;107639;1278;67941;-62
2023/12/02 02:20:28;;;;;;;10.50;3.60;;;;;;;-1.06;100.00;98922.15;107493;1278;72477;-63
2023/12/02 02:23:18;;;;;;;11.10;4.70;;;;;;;-1.05;100.00;98920.56;107542;1279;58168;-63
2023/12/02 02:26:06;;;;;;;13.20;4.60;;;;;;;-1.05;100.00;98919.86;107684;1278;59061;-61
2023/12/02 02:28:54;;;;;;;12.20;4.90;;;;;;;-1.05;100.00;98921.76;107679;1278;72627;-61
2023/12/02 02:31:42;;;;;;;42.10;12.80;;;;;;;-1.06;100.00;98919.55;107555;1278;66951;-60
2023/12/02 02:34:30;;;;;;;102.30;24.30;;;;;;;-1.09;100.00;98925.25;107553;1278;71367;-63
2023/12/02 02:37:17;;;;;;;105.00;31.20;;;;;;;-1.16;100.00;98921.58;107350;1278;58546;-62
2023/12/02 02:40:06;;;;;;;53.90;16.40;;;;;;;-1.24;100.00;98922.69;107565;1279;60076;-63
2023/12/02 02:42:54;;;;;;;30.00;12.20;;;;;;;-1.36;100.00;98920.77;107567;1278;73606;-61
2023/12/02 02:45:42;;;;;;;22.40;9.10;;;;;;;-1.43;100.00;98917.99;107455;1277;67856;-61
2023/12/02 02:48:30;;;;;;;26.00;10.70;;;;;;;-1.49;100.00;98914.79;107637;1278;74389;-62
2023/12/02 02:51:18;;;;;;;106.10;40.60;;;;;;;-1.56;100.00;98914.39;107641;1277;58897;-62
2023/12/02 02:54:06;;;;;;;106.10;40.50;;;;;;;-1.63;100.00;98908.81;107514;1278;60259;-61
2023/12/02 02:56:54;;;;;;;59.20;24.90;;;;;;;-1.70;100.00;98914.17;107474;1279;73957;-64
2023/12/02 02:59:42;;;;;;;40.60;19.60;;;;;;;-1.81;100.00;98917.30;107688;1278;68077;-62
2023/12/02 03:02:30;;;;;;;28.60;12.90;;;;;;;-1.93;100.00;98923.56;107617;1278;71464;-65
2023/12/02 03:05:18;;;;;;;23.50;10.10;;;;;;;-2.03;100.00;98922.81;107681;1277;58149;-63
2023/12/02 03:08:05;;;;;;;14.50;5.90;;;;;;;-2.14;100.00;98925.19;107665;1278;59103;-61
2023/12/02 03:10:53;;;;;;;15.30;5.70;;;;;;;-2.23;100.00;98924.55;107681;1277;71576;-62
2023/12/02 03:13:40;;;;;;;14.10;4.80;;;;;;;-2.30;100.00;98924.50;107656;1278;67693;-62
2023/12/02 03:16:28;;;;;;;13.50;4.80;;;;;;;-2.36;100.00;98921.43;107617;1277;72450;-63
2023/12/02 03:19:19;;;;;;;13.10;5.00;;;;;;;-2.40;100.00;98926.14;107610;1277;58578;-61
2023/12/02 03:22:07;;;;;;;11.60;4.80;;;;;;;-2.45;100.00;98925.48;107364;1279;59460;-61
2023/12/02 03:24:55;;;;;;;12.00;5.90;;;;;;;-2.46;100.00;98930.75;107526;1277;73934;-62
2023/12/02 03:27:43;;;;;;;12.10;4.70;;;;;;;-2.46;100.00;98935.77;107426;1278;65737;-62
2023/12/02 03:30:31;;;;;;;13.20;4.70;;;;;;;-2.46;100.00;98933.16;107455;1278;72381;-64
2023/12/02 03:33:19;;;;;;;11.90;3.90;;;;;;;-2.46;100.00;98932.13;107564;1278;58208;-61
2023/12/02 03:36:07;;;;;;;11.00;4.10;;;;;;;-2.46;100.00;98931.44;106723;1277;1002331;-62
2023/12/02 03:38:56;;;;;;;11.80;3.80;;;;;;;-2.47;100.00;98935.64;107507;1277;73959;-62
2023/12/02 03:41:44;;;;;;;14.40;5.20;;;;;;;-2.51;100.00;98928.69;107659;1278;67005;-61
2023/12/02 03:44:31;;;;;;;14.30;4.70;;;;;;;-2.47;100.00;98938.95;107644;1278;72239;-61
2023/12/02 03:47:19;;;;;;;11.70;4.70;;;;;;;-2.47;100.00;98938.44;107423;1281;59851;-61
2023/12/02 03:50:09;;;;;;;15.80;5.00;;;;;;;-2.48;100.00;98939.16;107491;1279;60120;-63
2023/12/02 03:52:57;;;;;;;15.00;5.10;;;;;;;-2.46;100.00;98940.61;106894;1278;1002906;-62
2023/12/02 03:55:48;;;;;;;12.60;4.40;;;;;;;-2.42;100.00;98937.14;107498;1278;67708;-63
2023/12/02 03:58:36;;;;;;;19.60;6.90;;;;;;;-2.39;100.00;98936.33;107438;1278;73503;-61
2023/12/02 04:01:23;;;;;;;26.20;11.00;;;;;;;-2.38;100.00;98935.45;107612;1278;58201;-62
2023/12/02 04:04:11;;;;;;;39.20;15.70;;;;;;;-2.37;100.00;98937.46;107353;1279;60030;-62
2023/12/02 04:06:59;;;;;;;55.80;21.50;;;;;;;-2.39;100.00;98932.52;106867;1278;1002320;-63
2023/12/02 04:09:46;;;;;;;35.80;14.90;;;;;;;-2.43;100.00;98928.51;106885;1278;1002818;-62
2023/12/02 04:12:35;;;;;;;21.50;8.40;;;;;;;-2.46;100.00;98931.21;107492;1279;72585;-62
2023/12/02 04:15:22;;;;;;;13.70;5.00;;;;;;;-2.49;100.00;98933.98;107596;1278;59500;-63
2023/12/02 04:18:11;;;;;;;15.70;5.30;;;;;;;-2.52;100.00;98934.30;106869;1277;1002865;-62
2023/12/02 04:20:59;;;;;;;13.60;5.90;;;;;;;-2.55;100.00;98929.71;107601;1278;73610;-64
2023/12/02 04:23:47;;;;;;;13.70;4.90;;;;;;;-2.56;100.00;98928.38;107467;1278;67677;-61
2023/12/02 04:26:37;;;;;;;11.90;4.30;;;;;;;-2.60;100.00;98926.97;107455;1278;71166;-63
2023/12/02 04:29:25;;;;;;;9.90;3.40;;;;;;;-2.58;100.00;98929.30;107576;1277;59555;-62
2023/12/02 04:32:12;;;;;;;11.50;4.70;;;;;;;-2.57;100.00;98935.00;107429;1279;60459;-62
2023/12/02 04:35:01;;;;;;;9.60;4.10;;;;;;;-2.54;100.00;98931.27;107607;1277;73527;-62
2023/12/02 04:37:48;;;;;;;13.10;5.30;;;;;;;-2.52;100.00;98929.08;107370;1279;67742;-62
2023/12/02 04:40:36;;;;;;;16.80;4.80;;;;;;;-2.53;100.00;98927.19;107450;1277;70933;-65
2023/12/02 04:43:24;;;;;;;13.60;4.40;;;;;;;-2.54;100.00;98938.20;107448;1278;58156;-63
2023/12/02 04:46:12;;;;;;;14.40;5.30;;;;;;;-2.57;100.00;98938.83;107647;1278;60344;-62
2023/12/02 04:48:59;;;;;;;15.30;6.30;;;;;;;-2.59;100.00;98938.23;107611;1277;74006;-62
2023/12/02 04:51:47;;;;;;;13.50;5.60;;;;;;;-2.61;100.00;98943.52;107469;1278;68940;-62
2023/12/02 04:54:35;;;;;;;15.10;5.30;;;;;;;-2.64;100.00;98946.75;107639;1277;73522;-63
2023/12/02 04:57:23;;;;;;;14.60;5.50;;;;;;;-2.72;100.00;98938.92;107593;1278;58696;-62
2023/12/02 05:00:14;;;;;;;14.00;5.70;;;;;;;-2.68;100.00;98945.02;106721;1278;1003169;-62
2023/12/02 05:03:02;;;;;;;14.20;5.20;;;;;;;-2.67;100.00;98948.11;107438;1278;73908;-61
2023/12/02 05:05:50;;;;;;;16.10;5.30;;;;;;;-2.67;100.00;98948.27;107379;1277;66826;-62
2023/12/02 05:08:38;;;;;;;14.00;5.30;;;;;;;-2.67;100.00;98949.84;107631;1278;72394;-62
2023/12/02 05:11:26;;;;;;;13.40;4.70;;;;;;;-2.69;100.00;98948.35;107456;1278;58124;-64
2023/12/02 05:14:13;;;;;;;14.00;5.60;;;;;;;-2.72;100.00;98941.70;106707;1278;1002772;-63
2023/12/02 05:17:02;;;;;;;12.80;5.50;;;;;;;-2.75;100.00;98932.96;107600;1277;74009;-62
2023/12/02 05:19:50;;;;;;;14.40;6.90;;;;;;;-2.78;100.00;98937.61;107468;1278;66364;-63
2023/12/02 05:22:40;;;;;;;13.20;5.80;;;;;;;-2.82;100.00;98939.50;107608;1278;72633;-62
2023/12/02 05:25:27;;;;;;;11.60;4.40;;;;;;;-2.85;100.00;98944.69;107461;1278;58911;-62
2023/12/02 05:28:15;;;;;;;13.60;5.00;;;;;;;-2.86;100.00;98949.23;107486;1278;61373;-61
2023/12/02 05:31:03;;;;;;;11.20;4.20;;;;;;;-2.85;100.00;98954.02;107652;1278;73809;-61
2023/12/02 05:33:51;;;;;;;10.10;4.10;;;;;;;-2.80;100.00;98952.63;107430;1278;66889;-63
2023/12/02 05:36:40;;;;;;;13.50;4.80;;;;;;;-2.73;100.00;98942.63;107523;1278;73842;-66
2023/12/02 05:39:28;;;;;;;10.90;4.40;;;;;;;-2.66;100.00;98937.13;107614;1278;58182;-63
2023/12/02 05:42:16;;;;;;;12.20;4.30;;;;;;;-2.62;100.00;98935.39;107445;1277;61029;-66
2023/12/02 05:45:05;;;;;;;10.60;4.40;;;;;;;-2.62;100.00;98940.77;107411;1279;73871;-65
2023/12/02 05:47:53;;;;;;;11.50;4.90;;;;;;;-2.62;100.00;98943.74;107606;1277;67965;-65
2023/12/02 05:50:41;;;;;;;12.00;4.50;;;;;;;-2.60;100.00;98946.43;107545;1278;72795;-62
2023/12/02 05:53:31;;;;;;;10.70;5.00;;;;;;;-2.53;100.00;98946.66;106598;1277;1002164;-62
2023/12/02 05:56:21;;;;;;;11.70;4.60;;;;;;;-2.50;100.00;98943.07;107397;1278;60576;-62
2023/12/02 05:59:09;;;;;;;10.30;3.90;;;;;;;-2.47;100.00;98944.15;107575;1277;74418;-63
2023/12/02 06:01:57;;;;;;;11.00;3.90;;;;;;;-2.47;100.00;98946.05;107599;1278;68751;-63
2023/12/02 06:04:45;;;;;;;9.80;4.20;;;;;;;-2.45;100.00;98953.28;107553;1278;72701;-64
2023/12/02 06:07:33;;;;;;;9.80;4.00;;;;;;;-2.41;100.00;98958.48;107559;1277;58132;-61
2023/12/02 06:10:21;;;;;;;10.20;4.10;;;;;;;-2.34;100.00;98958.38;107535;1278;60889;-63
2023/12/02 06:13:09;;;;;;;8.80;3.40;;;;;;;-2.30;100.00;98958.55;107647;1278;73994;-63
2023/12/02 06:15:56;;;;;;;11.70;4.60;;;;;;;-2.31;100.00;98957.71;107625;1278;65811;-62
2023/12/02 06:18:44;;;;;;;11.50;4.00;;;;;;;-2.24;100.00;98961.75;107599;1277;72328;-64
2023/12/02 06:21:32;;;;;;;9.20;4.10;;;;;;;-2.18;100.00;98956.81;107588;1278;58874;-62
2023/12/02 06:24:20;;;;;;;12.40;5.00;;;;;;;-2.13;100.00;98958.53;107572;1277;58829;-63
2023/12/02 06:27:08;;;;;;;14.40;5.70;;;;;;;-2.10;100.00;98962.20;107438;1279;73623;-62
2023/12/02 06:29:56;;;;;;;13.80;6.00;;;;;;;-2.06;100.00;98963.80;107599;1278;68710;-62
2023/12/02 06:32:44;;;;;;;14.80;7.20;;;;;;;-2.02;100.00;98964.11;107401;1278;73457;-62
2023/12/02 06:35:32;;;;;;;12.30;5.50;;;;;;;-1.95;100.00;98960.87;107579;1278;58228;-64
2023/12/02 06:38:20;;;;;;;13.20;5.40;;;;;;;-1.93;100.00;98957.45;106781;1278;1002343;-65
2023/12/02 06:41:08;;;;;;;11.30;5.00;;;;;;;-1.90;100.00;98957.86;107589;1278;73659;-63
2023/12/02 06:43:55;;;;;;;13.80;5.40;;;;;;;-1.89;100.00;98956.95;107599;1278;67963;-63
2023/12/02 06:46:43;;;;;;;15.90;5.80;;;;;;;-1.91;100.00;98955.27;107398;1277;72025;-63
2023/12/02 06:49:31;;;;;;;14.20;4.70;;;;;;;-1.89;100.00;98957.99;107382;1278;59519;-61
2023/12/02 06:52:19;;;;;;;17.50;5.90;;;;;;;-1.87;100.00;98957.06;107626;1277;58817;-63
2023/12/02 06:55:09;;;;;;;18.00;8.70;;;;;;;-1.85;100.00;98954.49;107578;1278;74895;-63
2023/12/02 06:58:00;;;;;;;20.90;10.30;;;;;;;-1.82;100.00;98953.02;107366;1278;66867;-63
2023/12/02 07:00:48;;;;;;;19.40;9.60;;;;;;;-1.80;100.00;98952.39;107409;1278;73880;-63
2023/12/02 07:03:39;;;;;;;15.70;7.30;;;;;;;-1.78;100.00;98952.65;107619;1278;58083;-63
2023/12/02 07:06:27;;;;;;;16.50;7.90;;;;;;;-1.77;100.00;98965.27;107443;1278;61064;-63
2023/12/02 07:09:16;;;;;;;17.80;7.70;;;;;;;-1.71;100.00;98979.46;107627;1278;73589;-62
2023/12/02 07:12:04;;;;;;;14.50;7.80;;;;;;;-1.63;100.00;98983.28;107589;1277;65808;-62
2023/12/02 07:14:52;;;;;;;17.90;8.30;;;;;;;-1.57;100.00;98986.29;107573;1279;72396;-64
2023/12/02 07:17:39;;;;;;;21.10;8.90;;;;;;;-1.51;100.00;98986.56;107596;1278;58494;-62
2023/12/02 07:20:27;;;;;;;22.30;9.10;;;;;;;-1.47;100.00;98987.59;107608;1277;58925;-64
2023/12/02 07:23:16;;;;;;;29.40;11.20;;;;;;;-1.44;100.00;98992.52;107576;1277;72864;-62
2023/12/02 07:26:05;;;;;;;26.40;11.80;;;;;;;-1.43;100.00;98995.80;106704;1277;1002820;-63
2023/12/02 07:28:53;;;;;;;22.10;9.00;;;;;;;-1.43;100.00;99000.61;107616;1277;71694;-63
2023/12/02 07:31:41;;;;;;;24.90;9.70;;;;;;;-1.40;100.00;98993.71;107408;1278;58699;-62
2023/12/02 07:34:28;;;;;;;24.50;9.90;;;;;;;-1.35;100.00;98986.88;107576;1278;58867;-63
2023/12/02 07:37:16;;;;;;;18.20;7.90;;;;;;;-1.30;100.00;98984.75;107610;1278;73631;-60
2023/12/02 07:40:05;;;;;;;17.10;6.60;;;;;;;-1.25;100.00;98980.17;107452;1278;66981;-63
2023/12/02 07:42:53;;;;;;;16.70;6.80;;;;;;;-1.18;100.00;98983.67;107580;1277;72680;-65
2023/12/02 07:45:41;;;;;;;15.70;5.80;;;;;;;-1.11;100.00;98990.46;107319;1279;58220;-62
2023/12/02 07:48:29;;;;;;;14.30;5.80;;;;;;;-1.00;100.00;98999.55;107611;1278;60013;-62
2023/12/02 07:51:18;;;;;;;14.80;6.40;;;;;;;-0.92;100.00;99012.23;107611;1278;73503;-62
2023/12/02 07:54:06;;;;;;;17.10;6.70;;;;;;;-0.78;100.00;99011.57;107618;1277;67207;-62
2023/12/02 07:56:54;;;;;;;17.10;7.60;;;;;;;-0.71;100.00;99006.00;107481;1276;73698;-63
2023/12/02 07:59:41;;;;;;;19.60;8.90;;;;;;;-0.71;100.00;99008.96;107619;1276;58249;-63
2023/12/02 08:02:29;;;;;;;19.20;7.70;;;;;;;-0.72;100.00;99010.95;107534;1276;59015;-61
2023/12/02 08:05:18;;;;;;;19.30;8.90;;;;;;;-0.71;100.00;99003.74;107596;1276;74839;-65
2023/12/02 08:08:09;;;;;;;18.30;7.90;;;;;;;-0.71;100.00;98998.52;107468;1277;67663;-62
2023/12/02 08:10:56;;;;;;;17.90;7.20;;;;;;;-0.64;100.00;99009.02;107622;1276;72536;-62
2023/12/02 08:13:44;;;;;;;16.80;7.50;;;;;;;-0.60;100.00;99012.78;107459;1278;58928;-63
2023/12/02 08:16:32;;;;;;;17.70;7.20;;;;;;;-0.58;100.00;99020.34;107649;1277;60407;-64
2023/12/02 08:19:20;;;;;;;18.20;7.50;;;;;;;-0.56;100.00;99023.03;107617;1277;73882;-67
2023/12/02 08:22:08;;;;;;;15.70;7.50;;;;;;;-0.52;100.00;99029.85;107504;1277;68373;-64
2023/12/02 08:24:56;;;;;;;17.90;8.60;;;;;;;-0.48;100.00;99027.05;107515;1279;71142;-65
2023/12/02 08:27:44;;;;;;;18.60;7.30;;;;;;;-0.40;100.00;99027.35;107653;1276;58419;-64
2023/12/02 08:30:31;;;;;;;18.90;8.50;;;;;;;-0.34;100.00;99031.58;107569;1276;58897;-64
2023/12/02 08:33:19;;;;;;;21.30;8.90;;;;;;;-0.31;100.00;99030.77;107655;1276;72333;-67
2023/12/02 08:36:08;;;;;;;22.50;8.70;;;;;;;-0.30;100.00;99029.80;107371;1277;67934;-66
2023/12/02 08:38:56;;;;;;;25.90;10.40;;;;;;;-0.24;100.00;99037.00;107377;1276;73576;-68
2023/12/02 08:41:44;;;;;;;23.90;10.00;;;;;;;-0.16;100.00;99040.98;107471;1279;58463;-68
2023/12/02 08:44:32;;;;;;;22.70;9.00;;;;;;;-0.08;100.00;99037.77;107281;1278;60761;-67
2023/12/02 08:47:20;;;;;;;18.50;7.80;;;;;;;-0.01;100.00;99041.10;107496;1279;74855;-67
2023/12/02 08:50:08;;;;;;;19.20;8.90;;;;;;;0.06;100.00;99046.34;107523;1277;68619;-69
2023/12/02 08:52:56;;;;;;;20.20;7.40;;;;;;;0.16;100.00;99046.34;107592;1277;72878;-68
2023/12/02 08:55:44;;;;;;;14.90;6.40;;;;;;;0.24;100.00;99051.34;107324;1277;58253;-65
2023/12/02 08:58:32;;;;;;;14.70;6.40;;;;;;;0.31;100.00;99051.48;107607;1278;59951;-63
2023/12/02 09:01:23;;;;;;;16.80;7.30;;;;;;;0.40;100.00;99046.16;107608;1278;73802;-63
2023/12/02 09:04:12;;;;;;;17.10;6.50;;;;;;;0.48;100.00;99050.27;107286;1278;65849;-64
2023/12/02 09:07:00;;;;;;;19.50;7.40;;;;;;;0.57;100.00;99049.48;107565;1278;71463;-64
2023/12/02 09:09:48;;;;;;;18.90;7.60;;;;;;;0.67;100.00;99047.36;107569;1278;58130;-64
2023/12/02 09:12:36;;;;;;;16.70;7.60;;;;;;;0.79;100.00;99045.54;107323;1278;58601;-64
2023/12/02 09:15:23;;;;;;;18.90;7.70;;;;;;;0.89;100.00;99044.80;107404;1278;73624;-62
2023/12/02 09:18:13;;;;;;;17.60;7.60;;;;;;;1.01;100.00;99042.58;107505;1278;67956;-61
2023/12/02 09:21:02;;;;;;;15.70;6.70;;;;;;;1.09;100.00;99043.20;107463;1278;71168;-62
2023/12/02 09:23:51;;;;;;;20.60;7.80;;;;;;;1.12;99.93;99051.94;107385;1279;58413;-65
2023/12/02 09:26:42;;;;;;;17.10;7.50;;;;;;;1.12;99.78;99050.55;107518;1278;60003;-65
2023/12/02 09:29:42;;;;;;;19.50;9.20;;;;;;;1.17;99.99;99055.67;107364;1278;74385;-63
2023/12/02 09:32:46;;;;;;;23.90;11.20;;;;;;;1.26;99.45;99055.38;107405;1278;69207;-63
2023/12/02 09:35:34;;;;;;;17.70;8.80;;;;;;;1.36;99.13;99053.09;107383;1277;71735;-66
2023/12/02 09:38:23;;;;;;;17.10;7.70;;;;;;;1.45;98.59;99048.20;107415;1277;58924;-64
2023/12/02 09:41:44;;;;;;;20.60;8.10;;;;;;;1.52;98.02;99047.99;107500;1277;60121;-63
2023/12/02 09:44:45;;;;;;;17.10;7.80;;;;;;;1.60;98.08;99048.58;107552;1278;73474;-63
2023/12/02 09:47:40;;;;;;;15.90;7.10;;;;;;;1.65;97.80;99048.84;107556;1278;68887;-63
2023/12/02 09:50:39;;;;;;;18.80;9.10;;;;;;;1.60;96.85;99051.73;107527;1278;73163;-62
2023/12/02 09:53:49;;;;;;;18.30;7.60;;;;;;;1.57;96.78;99059.45;107431;1278;58469;-64
2023/12/02 09:56:53;;;;;;;16.90;7.70;;;;;;;1.60;97.09;99059.27;107564;1278;61353;-63
2023/12/02 10:00:12;;;;;;;19.90;7.60;;;;;;;1.63;96.82;99061.36;107583;1277;75012;-63
2023/12/02 10:03:47;;;;;;;17.50;7.00;;;;;;;1.67;97.01;99060.78;107538;1278;66606;-61
2023/12/02 10:06:54;;;;;;;14.60;6.10;;;;;;;1.76;96.90;99054.17;107654;1277;73305;-64
2023/12/02 10:10:10;;;;;;;14.40;7.10;;;;;;;1.84;96.52;99055.77;107500;1277;58149;-64
2023/12/02 10:13:04;;;;;;;13.70;6.20;;;;;;;1.91;96.45;99051.38;107566;1276;59542;-62
2023/12/02 10:15:57;;;;;;;17.60;6.70;;;;;;;1.92;95.48;99048.66;107529;1277;72301;-62
2023/12/02 10:18:56;;;;;;;18.30;7.10;;;;;;;1.91;95.41;99046.99;107773;1276;67639;-63
2023/12/02 10:21:51;;;;;;;16.70;7.70;;;;;;;1.92;95.38;99048.30;107687;1276;74121;-62
2023/12/02 10:24:46;;;;;;;16.20;7.40;;;;;;;1.87;95.16;99043.38;107679;1278;58495;-63
2023/12/02 10:27:38;;;;;;;15.30;6.50;;;;;;;1.83;95.66;99041.71;107725;1277;60452;-61
2023/12/02 10:30:28;;;;;;;16.30;6.60;;;;;;;1.80;95.93;99033.96;107744;1277;74562;-62
2023/12/02 10:33:31;;;;;;;16.80;7.10;;;;;;;1.76;95.68;99028.41;107458;1276;66991;-63
2023/12/02 10:36:21;;;;;;;16.70;6.40;;;;;;;1.70;95.76;99030.16;107549;1277;73026;-62
2023/12/02 10:39:28;;;;;;;14.90;6.60;;;;;;;1.65;96.03;99033.95;107702;1277;58195;-63
2023/12/02 10:42:48;;;;;;;15.20;6.00;;;;;;;1.63;96.62;99026.19;107740;1276;60273;-63
2023/12/02 10:45:41;;;;;;;17.70;6.50;;;;;;;1.60;96.54;99025.17;107382;1277;74430;-63
2023/12/02 10:48:30;;;;;;;17.20;6.50;;;;;;;1.56;96.20;99023.83;107470;1277;66369;-61
2023/12/02 10:51:21;;;;;;;16.40;6.50;;;;;;;1.55;96.69;99019.83;107539;1277;72652;-62
2023/12/02 10:54:16;;;;;;;14.40;6.10;;;;;;;1.53;96.33;99016.61;107549;1277;58595;-63
2023/12/02 10:57:07;;;;;;;13.30;5.60;;;;;;;1.54;96.37;99015.54;107440;1277;60095;-63
2023/12/02 11:00:11;;;;;;;20.60;7.90;;;;;;;1.54;96.88;99017.48;107274;1277;74608;-66
2023/12/02 11:03:13;;;;;;;19.40;8.20;;;;;;;1.56;96.86;99019.27;107439;1277;67922;-64
2023/12/02 11:06:16;;;;;;;23.00;9.10;;;;;;;1.59;96.63;99019.60;107707;1277;72747;-63
2023/12/02 11:09:17;;;;;;;21.40;8.00;;;;;;;1.66;96.54;99018.13;107721;1277;58231;-63
2023/12/02 11:12:36;;;;;;;17.70;6.40;;;;;;;1.72;96.50;99013.79;107570;1277;58760;-62
2023/12/02 11:15:28;;;;;;;21.90;7.60;;;;;;;1.80;96.66;99020.33;107773;1276;72329;-63
2023/12/02 11:18:31;;;;;;;17.10;7.20;;;;;;;1.88;96.27;99018.34;106990;1278;1002214;-62
2023/12/02 11:21:39;;;;;;;23.50;8.90;;;;;;;1.99;96.08;99023.79;107700;1277;72634;-63
2023/12/02 11:24:45;;;;;;;16.50;7.60;;;;;;;2.22;96.05;99027.00;107733;1276;58536;-63
2023/12/02 11:27:39;;;;;;;16.00;6.70;;;;;;;2.56;95.38;99019.52;107570;1276;61633;-65
2023/12/02 11:30:57;;;;;;;15.60;6.30;;;;;;;3.04;94.18;99017.94;107536;1277;72704;-63
2023/12/02 11:34:07;;;;;;;12.70;5.80;;;;;;;3.73;92.46;99028.95;107562;1276;224273;-63
2023/12/02 11:37:37;;;;;;;13.00;5.30;;;;;;;4.04;90.44;99029.20;107558;1278;73870;-62
2023/12/02 11:40:46;;;;;;;15.80;5.40;;;;;;;4.14;88.26;99032.72;107449;1278;58259;-64
2023/12/02 11:44:16;;;;;;;14.40;6.90;;;;;;;4.03;86.80;99034.00;107425;1278;60088;-65
2023/12/02 11:47:47;;;;;;;16.40;6.10;;;;;;;3.91;86.98;99041.25;107662;1276;73609;-67
2023/12/02 11:50:57;;;;;;;14.10;5.90;;;;;;;3.74;86.41;99052.20;107766;1277;67974;-64
2023/12/02 11:54:21;;;;;;;13.60;6.90;;;;;;;3.61;87.21;99057.64;107738;1277;71784;-66
2023/12/02 11:57:40;;;;;;;15.70;6.60;;;;;;;3.47;87.47;99052.41;107470;1277;58480;-64
2023/12/02 12:00:45;;;;;;;13.30;6.30;;;;;;;3.32;87.82;99053.52;107463;1277;61033;-64
2023/12/02 12:04:06;;;;;;;12.80;6.00;;;;;;;3.18;88.26;99051.95;107644;1278;75071;-63
2023/12/02 12:07:20;;;;;;;12.80;5.30;;;;;;;3.03;88.85;99054.11;107623;1278;68746;-63
2023/12/02 12:10:35;;;;;;;12.50;6.10;;;;;;;2.89;89.13;99049.54;107513;1278;72521;-62
2023/12/02 12:13:25;;;;;;;16.00;6.40;;;;;;;2.80;89.92;99047.33;107615;1277;58213;-62
2023/12/02 12:16:14;;;;;;;12.60;6.10;;;;;;;2.77;90.40;99044.13;106328;1278;1002979;-63
2023/12/02 12:19:03;;;;;;;14.80;6.90;;;;;;;2.77;90.41;99045.92;107631;1278;75050;-63
2023/12/02 12:21:50;;;;;;;13.80;7.00;;;;;;;2.76;90.43;99043.89;107632;1278;67700;-62
2023/12/02 12:24:39;;;;;;;14.00;6.60;;;;;;;2.72;90.32;99039.91;107627;1278;71289;-62
2023/12/02 12:27:27;;;;;;;14.50;6.60;;;;;;;2.65;90.42;99041.54;107268;1279;58918;-63
2023/12/02 12:30:15;;;;;;;20.50;8.70;;;;;;;2.58;90.59;99036.88;107220;1278;59130;-64
2023/12/02 12:33:03;;;;;;;20.80;8.40;;;;;;;2.52;91.06;99034.08;107371;1279;73521;-62
2023/12/02 12:35:52;;;;;;;19.30;7.80;;;;;;;2.45;91.37;99040.64;107204;1279;1002661;-61
2023/12/02 12:38:44;;;;;;;16.90;8.50;;;;;;;2.41;91.77;99051.09;107566;1277;71491;-64
2023/12/02 12:41:32;;;;;;;20.30;9.10;;;;;;;2.34;91.54;99051.80;107309;1278;58484;-66
2023/12/02 12:44:20;;;;;;;21.40;10.30;;;;;;;2.25;92.05;99051.64;107438;1277;61484;-63
2023/12/02 12:47:10;;;;;;;25.90;12.00;;;;;;;2.17;92.47;99051.09;106566;1277;1002584;-63
2023/12/02 12:50:02;;;;;;;21.50;8.80;;;;;;;2.08;92.58;99043.19;107345;1277;66383;-63
2023/12/02 12:52:51;;;;;;;19.40;9.10;;;;;;;2.01;93.06;99040.84;107299;1277;72661;-66
2023/12/02 12:55:45;;;;;;;18.70;8.40;;;;;;;1.96;93.21;99039.73;107615;1277;58546;-62
2023/12/02 12:58:58;;;;;;;23.20;10.30;;;;;;;1.94;93.68;99036.33;107519;1278;60118;-64
2023/12/02 13:02:06;;;;;;;27.40;11.90;;;;;;;1.96;94.02;99038.14;107443;1279;72909;-61